Time;durP1;ratioP1;P1;durP2;ratioP2;P2;SDS_P1;SDS_P2;PMS_P1;PMS_P2;Temp;Humidity;BMP_temperature;BMP_pressure;BME280_temperature;BME280_humidity;BME280_pressure;Samples;Min_cycle;Max_cycle;Signal;HPM_P1;HPM_P2
2023/01/15 00:00:51;;;;;;;3.85;0.85;;;6.00;99.90;;;;;;5030493;28;20444;-59
2023/01/15 00:03:17;;;;;;;2.70;1.00;;;6.00;99.90;;;;;;5031143;28;20029;-59
2023/01/15 00:05:42;;;;;;;2.58;0.60;;;5.90;99.90;;;;;;5029938;28;20021;-58
2023/01/15 00:08:08;;;;;;;4.13;0.98;;;5.90;99.90;;;;;;5031010;28;20452;-60
2023/01/15 00:10:34;;;;;;;2.47;0.60;;;5.90;99.90;;;;;;5031040;28;20096;-59
2023/01/15 00:13:00;;;;;;;5.05;0.93;;;5.90;99.90;;;;;;5030288;28;20072;-60
2023/01/15 00:15:25;;;;;;;3.45;0.82;;;5.80;99.90;;;;;;5030925;28;20061;-58
2023/01/15 00:17:51;;;;;;;1.48;0.50;;;5.80;99.90;;;;;;5030930;28;20108;-59
2023/01/15 00:20:17;;;;;;;2.70;0.85;;;5.80;99.90;;;;;;5030636;28;20028;-59
2023/01/15 00:22:42;;;;;;;2.70;0.55;;;5.80;99.90;;;;;;5028955;28;20405;-59
2023/01/15 00:27:54;;;;;;;4.80;0.68;;;5.70;99.90;;;;;;5028954;28;20040;-59
2023/01/15 00:30:20;;;;;;;4.00;0.68;;;5.70;99.90;;;;;;5028745;28;20029;-58
2023/01/15 00:32:46;;;;;;;3.38;1.27;;;5.70;99.90;;;;;;5029785;28;20025;-60
2023/01/15 00:35:16;;;;;;;1.55;0.65;;;5.70;99.90;;;;;;5029070;28;20033;-59
2023/01/15 00:37:42;;;;;;;1.98;0.82;;;5.70;99.90;;;;;;5028406;28;20026;-57
2023/01/15 00:40:08;;;;;;;4.03;0.77;;;5.60;99.90;;;;;;5010776;28;20035;-57
2023/01/15 00:42:34;;;;;;;3.80;0.75;;;5.60;99.90;;;;;;5028123;28;20025;-60
2023/01/15 00:45:06;;;;;;;1.63;0.70;;;5.60;99.90;;;;;;5029689;28;20078;-60
2023/01/15 00:47:32;;;;;;;2.00;0.55;;;5.60;99.90;;;;;;5012610;28;20488;-59
2023/01/15 00:49:57;;;;;;;1.42;0.50;;;5.60;99.90;;;;;;5030046;28;20083;-58
2023/01/15 00:52:23;;;;;;;6.63;0.70;;;5.60;99.90;;;;;;5030038;28;20037;-57
2023/01/15 00:54:48;;;;;;;3.70;0.85;;;5.60;99.90;;;;;;5030079;28;20033;-58
2023/01/15 00:57:14;;;;;;;4.10;0.70;;;5.60;99.90;;;;;;5028450;28;20512;-57
2023/01/15 00:59:39;;;;;;;5.28;1.10;;;5.60;99.90;;;;;;5011025;28;20482;-60
2023/01/15 01:02:05;;;;;;;9.02;1.35;;;5.60;99.90;;;;;;5028566;28;20940;-57
2023/01/15 01:04:30;;;;;;;1.42;0.50;;;5.50;99.90;;;;;;5029008;28;20025;-60
2023/01/15 01:06:56;;;;;;;3.63;0.68;;;5.50;99.90;;;;;;5028120;28;20030;-56
2023/01/15 01:09:22;;;;;;;1.55;0.52;;;5.60;99.90;;;;;;5029144;28;20095;-60
2023/01/15 01:11:48;;;;;;;1.63;0.50;;;5.50;99.90;;;;;;5010213;28;20068;-60
2023/01/15 01:14:14;;;;;;;4.72;0.90;;;5.60;99.90;;;;;;5029261;28;20028;-60
2023/01/15 01:16:41;;;;;;;1.55;0.77;;;5.50;99.90;;;;;;5028986;28;20018;-60
2023/01/15 01:19:19;;;;;;;6.53;1.25;;;5.60;99.90;;;;;;5029079;28;20022;-59
2023/01/15 01:21:46;;;;;;;1.77;0.98;;;5.60;99.90;;;;;;5011100;28;20034;-59
2023/01/15 01:24:15;;;;;;;4.22;1.02;;;5.50;99.90;;;;;;5028317;28;20021;-59
2023/01/15 01:26:42;;;;;;;2.78;0.93;;;5.50;99.90;;;;;;5028441;28;20025;-60
2023/01/15 01:29:11;;;;;;;1.30;0.68;;;5.50;99.90;;;;;;5011396;28;20499;-60
2023/01/15 01:31:36;;;;;;;2.30;1.05;;;5.50;99.90;;;;;;5029372;28;20471;-58
2023/01/15 01:34:02;;;;;;;3.15;1.15;;;5.50;99.90;;;;;;5024481;28;20037;-58
2023/01/15 01:36:30;;;;;;;2.28;0.82;;;5.50;99.90;;;;;;5028516;28;20074;-59
2023/01/15 01:38:56;;;;;;;1.17;0.60;;;5.50;99.90;;;;;;5028709;28;20040;-58
2023/01/15 01:41:21;;;;;;;3.38;0.93;;;5.50;99.90;;;;;;5027637;28;20033;-58
2023/01/15 01:44:07;;;;;;;2.05;0.60;;;5.50;99.90;;;;;;5028120;28;20037;-59
2023/01/15 01:46:34;;;;;;;2.92;1.08;;;5.50;99.90;;;;;;5010658;28;20104;-59
2023/01/15 01:49:10;;;;;;;2.22;0.90;;;5.50;99.90;;;;;;5028493;28;20088;-56
2023/01/15 01:51:44;;;;;;;4.10;0.75;;;5.60;99.90;;;;;;5027939;28;20030;-57
2023/01/15 01:54:13;;;;;;;1.75;0.82;;;5.50;99.90;;;;;;5028913;28;20068;-58
2023/01/15 01:56:38;;;;;;;4.13;1.33;;;5.50;99.90;;;;;;5028055;28;20033;-55
2023/01/15 01:59:06;;;;;;;2.63;0.93;;;5.60;99.90;;;;;;5026123;28;20030;-59
2023/01/15 02:01:32;;;;;;;3.15;0.60;;;5.60;99.90;;;;;;5025622;28;20060;-58
2023/01/15 02:03:58;;;;;;;3.13;1.33;;;5.60;99.90;;;;;;5008628;28;20061;-58
2023/01/15 02:06:25;;;;;;;4.65;1.13;;;5.60;99.90;;;;;;5010265;28;20101;-59
2023/01/15 02:08:51;;;;;;;1.92;0.90;;;5.60;99.90;;;;;;5027408;28;20068;-53
2023/01/15 02:11:20;;;;;;;4.25;0.80;;;5.60;99.90;;;;;;5028513;28;20053;-55
2023/01/15 02:14:01;;;;;;;3.13;1.05;;;5.60;99.90;;;;;;5028546;28;20036;-60
2023/01/15 02:16:57;;;;;;;3.72;0.95;;;5.60;99.90;;;;;;5026554;28;20034;-56
2023/01/15 02:19:34;;;;;;;2.92;1.00;;;5.60;99.90;;;;;;5027251;28;20032;-57
2023/01/15 02:22:15;;;;;;;3.67;0.75;;;5.60;99.90;;;;;;5027840;28;20025;-59
2023/01/15 02:25:10;;;;;;;5.03;1.38;;;5.60;99.90;;;;;;5027956;28;20481;-58
2023/01/15 02:27:42;;;;;;;3.67;1.17;;;5.60;99.90;;;;;;5028244;28;20120;-58
2023/01/15 02:30:38;;;;;;;5.03;1.52;;;5.60;99.90;;;;;;5009964;28;20033;-54
2023/01/15 02:33:08;;;;;;;4.75;1.05;;;5.60;99.90;;;;;;5008378;28;20128;-59
2023/01/15 02:35:36;;;;;;;4.63;1.40;;;5.60;99.90;;;;;;5027913;28;20037;-57
2023/01/15 02:38:07;;;;;;;3.30;1.10;;;5.60;99.90;;;;;;5026713;28;20041;-59
2023/01/15 02:40:35;;;;;;;2.17;0.82;;;5.60;99.90;;;;;;5028277;28;20033;-58
2023/01/15 02:43:00;;;;;;;5.93;1.10;;;5.60;99.90;;;;;;5009227;28;20108;-60
2023/01/15 02:45:29;;;;;;;4.13;1.23;;;5.60;99.90;;;;;;5027594;28;20148;-59
2023/01/15 02:47:59;;;;;;;4.82;1.10;;;5.60;99.90;;;;;;5027096;28;20401;-59
2023/01/15 02:50:32;;;;;;;3.83;1.25;;;5.60;99.90;;;;;;5027131;28;20029;-58
2023/01/15 02:53:04;;;;;;;6.70;1.75;;;5.60;99.90;;;;;;5008000;28;20220;-59
2023/01/15 02:55:35;;;;;;;4.78;0.93;;;5.60;99.90;;;;;;5007865;28;20034;-58
2023/01/15 02:58:03;;;;;;;7.15;1.65;;;5.60;99.90;;;;;;5007553;28;20030;-60
2023/01/15 03:00:33;;;;;;;5.15;1.35;;;5.60;99.90;;;;;;5008310;28;20037;-59
2023/01/15 03:03:37;;;;;;;7.20;1.20;;;5.60;99.90;;;;;;5007754;28;20026;-59
2023/01/15 03:06:13;;;;;;;4.00;1.20;;;5.60;99.90;;;;;;4986704;28;20071;-58
2023/01/15 03:08:39;;;;;;;7.00;1.27;;;5.60;99.90;;;;;;4987877;28;20125;-53
2023/01/15 03:11:12;;;;;;;5.57;1.77;;;5.60;99.90;;;;;;5007971;28;20581;-59
2023/01/15 03:13:43;;;;;;;4.55;1.35;;;5.60;99.90;;;;;;5007394;28;20038;-59
2023/01/15 03:16:34;;;;;;;7.13;1.52;;;5.60;99.90;;;;;;5007104;28;20050;-59
2023/01/15 03:18:59;;;;;;;10.18;1.55;;;5.60;99.90;;;;;;5006914;28;20029;-59
2023/01/15 03:22:04;;;;;;;5.80;1.45;;;5.60;99.90;;;;;;5007451;28;20426;-58
2023/01/15 03:24:32;;;;;;;5.68;1.33;;;5.60;99.90;;;;;;4935045;29;20532;-59
2023/01/15 03:26:58;;;;;;;5.03;0.65;;;5.60;99.90;;;;;;4993171;28;20504;-59
2023/01/15 03:29:31;;;;;;;5.45;1.08;;;5.60;99.90;;;;;;5007513;28;20054;-59
2023/01/15 03:31:59;;;;;;;5.28;1.10;;;5.60;99.90;;;;;;5010142;28;20029;-57
2023/01/15 03:34:28;;;;;;;5.53;0.68;;;5.60;99.90;;;;;;5010884;28;20359;-57
2023/01/15 03:36:54;;;;;;;7.97;1.25;;;5.60;99.90;;;;;;5010565;28;20026;-58
2023/01/15 03:39:19;;;;;;;3.83;1.30;;;5.60;99.90;;;;;;5011568;28;20033;-56
2023/01/15 03:41:49;;;;;;;6.25;1.80;;;5.60;99.90;;;;;;5011453;28;20026;-58
2023/01/15 03:44:31;;;;;;;2.92;1.10;;;5.60;99.90;;;;;;5010635;28;20334;-58
2023/01/15 03:47:08;;;;;;;4.55;1.05;;;5.60;99.90;;;;;;5010328;28;20030;-56
2023/01/15 03:49:37;;;;;;;;;;;5.60;99.90;;;;;;5011299;28;20022;-58
2023/01/15 03:52:11;;;;;;;7.68;1.45;;;5.60;99.90;;;;;;5023696;28;20404;-58
2023/01/15 03:54:56;;;;;;;5.25;1.15;;;5.60;99.90;;;;;;5030522;28;20087;-54
2023/01/15 03:57:42;;;;;;;7.15;1.25;;;5.60;99.90;;;;;;5031118;28;20504;-55
2023/01/15 04:00:36;;;;;;;8.47;1.77;;;5.50;99.90;;;;;;5031505;28;20056;-59
2023/01/15 04:03:07;;;;;;;6.85;1.40;;;5.50;99.90;;;;;;5019415;28;20030;-58
2023/01/15 04:05:35;;;;;;;5.47;1.38;;;5.50;99.90;;;;;;5030316;28;20033;-56
2023/01/15 04:08:02;;;;;;;8.95;1.60;;;5.50;99.90;;;;;;5030102;28;20099;-59
2023/01/15 04:10:27;;;;;;;11.10;1.30;;;5.50;99.90;;;;;;5030814;28;20486;-59
2023/01/15 04:12:53;;;;;;;7.68;1.50;;;5.50;99.90;;;;;;5030666;28;20032;-58
2023/01/15 04:15:18;;;;;;;4.03;1.05;;;5.50;99.90;;;;;;5030416;28;20363;-58
2023/01/15 04:17:44;;;;;;;6.38;1.27;;;5.50;99.90;;;;;;5030822;28;20099;-57
2023/01/15 04:20:11;;;;;;;6.13;1.10;;;5.50;99.90;;;;;;5011841;28;20057;-58
2023/01/15 04:22:36;;;;;;;6.18;1.60;;;5.50;99.90;;;;;;5030415;28;20033;-58
2023/01/15 04:25:03;;;;;;;5.30;1.77;;;5.50;99.90;;;;;;5029547;28;20523;-57
2023/01/15 04:27:29;;;;;;;7.45;1.48;;;5.50;99.90;;;;;;5012867;28;20041;-54
2023/01/15 04:29:54;;;;;;;7.78;1.77;;;5.40;99.90;;;;;;5030501;28;20059;-55
2023/01/15 04:32:20;;;;;;;7.85;1.08;;;5.50;99.90;;;;;;5030198;28;20021;-57
2023/01/15 04:34:45;;;;;;;4.97;1.70;;;5.50;99.90;;;;;;5029225;28;20067;-58
2023/01/15 04:37:11;;;;;;;4.20;1.30;;;5.50;99.90;;;;;;5029438;28;20037;-58
2023/01/15 04:39:36;;;;;;;9.35;1.63;;;5.50;99.90;;;;;;5029725;28;20076;-56
2023/01/15 04:44:46;;;;;;;4.03;1.27;;;5.50;99.90;;;;;;5029466;28;20401;-57
2023/01/15 04:47:12;;;;;;;6.47;1.58;;;5.50;99.90;;;;;;5029708;28;20029;-56
2023/01/15 04:49:37;;;;;;;7.63;1.45;;;5.50;99.90;;;;;;5029262;28;20036;-54
2023/01/15 04:52:03;;;;;;;7.90;1.77;;;5.40;99.90;;;;;;5028806;28;20125;-54
2023/01/15 04:54:28;;;;;;;4.50;1.75;;;5.50;99.90;;;;;;5029800;28;20033;-60
2023/01/15 04:56:54;;;;;;;4.40;1.42;;;5.40;99.90;;;;;;5029153;28;20025;-52
2023/01/15 04:59:23;;;;;;;8.60;1.67;;;5.40;99.90;;;;;;5029301;28;20029;-57
2023/01/15 05:01:49;;;;;;;5.78;1.33;;;5.30;99.90;;;;;;5029564;28;20049;-55
2023/01/15 05:04:15;;;;;;;4.82;1.20;;;5.30;99.90;;;;;;5030280;28;20028;-55
2023/01/15 05:06:41;;;;;;;7.20;1.80;;;5.30;99.90;;;;;;5028689;28;20026;-60
2023/01/15 05:09:06;;;;;;;4.70;1.00;;;5.30;99.90;;;;;;5029791;28;20040;-60
2023/01/15 05:11:36;;;;;;;11.55;1.92;;;5.30;99.90;;;;;;5029593;28;20481;-54
2023/01/15 05:14:02;;;;;;;7.05;1.65;;;5.30;99.90;;;;;;5011468;28;20117;-61
2023/01/15 05:16:29;;;;;;;5.13;2.08;;;5.30;99.90;;;;;;5029410;28;20025;-59
2023/01/15 05:18:58;;;;;;;5.15;0.95;;;5.40;99.90;;;;;;5029191;28;20021;-58
2023/01/15 05:21:33;;;;;;;4.57;1.45;;;5.40;99.90;;;;;;5028949;28;20021;-60
2023/01/15 05:24:00;;;;;;;7.22;1.20;;;5.30;99.90;;;;;;5029506;28;20024;-57
2023/01/15 05:26:29;;;;;;;7.80;1.40;;;5.30;99.90;;;;;;5011254;28;20018;-57
2023/01/15 05:28:56;;;;;;;3.67;1.52;;;5.30;99.90;;;;;;5028945;28;20018;-59
2023/01/15 05:31:23;;;;;;;7.47;1.33;;;5.40;99.90;;;;;;5028607;28;20100;-60
2023/01/15 05:33:50;;;;;;;7.05;2.03;;;5.40;99.90;;;;;;5028963;28;20069;-58
2023/01/15 05:36:18;;;;;;;6.85;1.65;;;5.40;99.90;;;;;;5028613;28;20033;-60
2023/01/15 05:38:44;;;;;;;6.22;1.83;;;5.40;99.90;;;;;;5010533;28;20061;-58
2023/01/15 05:44:01;;;;;;;6.97;1.85;;;5.40;99.90;;;;;;5028767;28;20044;-59
2023/01/15 05:46:27;;;;;;;5.78;1.70;;;5.40;99.90;;;;;;5028578;28;20075;-58
2023/01/15 05:48:53;;;;;;;7.03;1.80;;;5.40;99.90;;;;;;5028791;28;20067;-58
2023/01/15 05:51:19;;;;;;;2.08;1.08;;;5.40;99.90;;;;;;5028407;28;20065;-58
2023/01/15 05:53:44;;;;;;;4.95;1.60;;;5.40;99.90;;;;;;5028360;28;20148;-56
2023/01/15 05:56:10;;;;;;;3.10;1.52;;;5.40;99.90;;;;;;5028792;28;20032;-55
2023/01/15 05:58:36;;;;;;;6.85;1.60;;;5.40;99.90;;;;;;5029181;28;20021;-58
2023/01/15 06:01:09;;;;;;;6.57;1.60;;;5.40;99.90;;;;;;5028865;28;20535;-58
2023/01/15 06:03:35;;;;;;;8.98;1.88;;;5.30;99.90;;;;;;5028298;28;20033;-60
2023/01/15 06:06:00;;;;;;;12.77;2.67;;;5.40;99.90;;;;;;5028208;28;20390;-58
2023/01/15 06:08:26;;;;;;;4.57;1.25;;;5.40;99.90;;;;;;5028872;28;20030;-59
2023/01/15 06:10:52;;;;;;;5.55;1.60;;;5.40;99.90;;;;;;5010656;28;20036;-60
2023/01/15 06:13:17;;;;;;;7.65;1.65;;;5.30;99.90;;;;;;5028922;28;20036;-59
2023/01/15 06:15:43;;;;;;;9.88;1.90;;;5.40;99.90;;;;;;5028469;28;20025;-58
2023/01/15 06:18:10;;;;;;;7.70;2.08;;;5.30;99.90;;;;;;5028160;28;20029;-59
2023/01/15 06:20:37;;;;;;;6.63;2.45;;;5.30;99.90;;;;;;5010961;28;20021;-59
2023/01/15 06:23:03;;;;;;;9.05;2.05;;;5.30;99.90;;;;;;5028205;28;20116;-58
2023/01/15 06:25:28;;;;;;;6.68;1.40;;;5.30;99.90;;;;;;5027658;28;20116;-60
2023/01/15 06:27:54;;;;;;;5.60;1.70;;;5.30;99.90;;;;;;5010518;28;20033;-57
2023/01/15 06:30:20;;;;;;;9.02;1.88;;;5.40;99.90;;;;;;5010295;28;20025;-59
2023/01/15 06:32:45;;;;;;;7.85;2.03;;;5.40;99.90;;;;;;5027926;28;20031;-59
2023/01/15 06:35:11;;;;;;;10.13;1.52;;;5.40;99.90;;;;;;5027844;28;20496;-56
2023/01/15 06:37:37;;;;;;;6.45;2.33;;;5.40;99.90;;;;;;5027513;28;20052;-58
2023/01/15 06:40:03;;;;;;;6.22;1.52;;;5.40;99.90;;;;;;5028146;28;20115;-57
2023/01/15 06:47:57;;;;;;;5.57;1.42;;;5.40;99.90;;;;;;5027857;28;20524;-57
2023/01/15 06:50:24;;;;;;;8.55;1.70;;;5.50;99.90;;;;;;5028013;28;20030;-59
2023/01/15 06:52:50;;;;;;;4.72;1.92;;;5.50;99.90;;;;;;5010179;28;20033;-57
2023/01/15 06:55:17;;;;;;;6.57;1.23;;;5.50;99.90;;;;;;5027485;28;20548;-56
2023/01/15 06:57:43;;;;;;;9.30;2.10;;;5.60;99.90;;;;;;5027879;28;20022;-59
2023/01/15 07:00:10;;;;;;;9.57;1.80;;;5.50;99.90;;;;;;5027912;28;20031;-56
2023/01/15 07:02:36;;;;;;;4.43;1.45;;;5.50;99.90;;;;;;5027712;28;20143;-58
2023/01/15 07:05:02;;;;;;;10.18;1.63;;;5.50;99.90;;;;;;5010283;28;20060;-60
2023/01/15 07:07:28;;;;;;;8.60;2.47;;;5.60;99.90;;;;;;5034494;28;20097;-59
2023/01/15 07:09:54;;;;;;;4.88;1.60;;;5.60;99.90;;;;;;5034624;28;20040;-59
2023/01/15 07:12:21;;;;;;;7.35;1.83;;;5.60;99.90;;;;;;5015857;28;20614;-58
2023/01/15 07:14:46;;;;;;;5.00;1.63;;;5.50;99.90;;;;;;5031837;28;20549;-60
2023/01/15 07:17:12;;;;;;;6.75;1.20;;;5.50;99.90;;;;;;5033861;28;20110;-52
2023/01/15 07:19:38;;;;;;;6.15;1.98;;;5.50;99.90;;;;;;5016498;28;20071;-56
2023/01/15 07:22:05;;;;;;;10.18;1.63;;;5.60;99.90;;;;;;5033615;28;20454;-55
2023/01/15 07:24:31;;;;;;;7.30;1.55;;;5.50;99.90;;;;;;5034440;28;20028;-57
2023/01/15 07:26:56;;;;;;;4.45;1.83;;;5.60;99.90;;;;;;5033401;28;20025;-55
2023/01/15 07:29:22;;;;;;;4.05;1.70;;;5.50;99.90;;;;;;5016060;28;20036;-58
2023/01/15 07:31:49;;;;;;;7.93;1.85;;;5.50;99.90;;;;;;5034144;28;20061;-60
2023/01/15 07:34:14;;;;;;;8.50;2.30;;;5.50;99.90;;;;;;5034703;28;20017;-59
2023/01/15 07:36:41;;;;;;;7.63;1.70;;;5.50;99.90;;;;;;5033980;28;20448;-58
2023/01/15 07:39:08;;;;;;;9.52;2.28;;;5.50;99.90;;;;;;5034272;28;20100;-58
2023/01/15 07:49:57;;;;;;;9.32;2.17;;;5.50;99.90;;;;;;4970121;28;20046;-59
2023/01/15 07:52:22;;;;;;;15.13;2.10;;;5.50;99.90;;;;;;5034013;28;20026;-57
2023/01/15 07:54:49;;;;;;;10.88;1.80;;;5.50;99.90;;;;;;5016248;28;20507;-60
2023/01/15 07:57:18;;;;;;;8.57;2.35;;;5.50;99.90;;;;;;5033666;28;20017;-60
2023/01/15 07:59:44;;;;;;;8.38;1.67;;;5.40;99.90;;;;;;5015936;28;20079;-60
2023/01/15 08:02:09;;;;;;;4.63;1.67;;;5.40;99.90;;;;;;5033184;28;20026;-55
2023/01/15 08:04:35;;;;;;;7.63;1.83;;;5.40;99.90;;;;;;5032290;28;20026;-59
2023/01/15 08:07:02;;;;;;;7.57;1.80;;;5.40;99.90;;;;;;5034219;28;20474;-59
2023/01/15 08:09:28;;;;;;;11.05;2.42;;;5.40;99.90;;;;;;5033617;28;20037;-58
2023/01/15 08:17:23;;;;;;;8.98;1.75;;;5.40;99.90;;;;;;5032468;28;20084;-59
2023/01/15 08:19:48;;;;;;;6.20;1.83;;;5.40;99.90;;;;;;5030691;28;20037;-58
2023/01/15 08:22:14;;;;;;;8.73;2.50;;;5.40;99.90;;;;;;5031007;28;20063;-57
2023/01/15 08:24:39;;;;;;;6.75;1.83;;;5.30;99.90;;;;;;5030609;28;20037;-59
2023/01/15 08:27:05;;;;;;;2.83;1.70;;;5.40;99.90;;;;;;5012872;28;20013;-59
2023/01/15 08:29:31;;;;;;;8.15;1.88;;;5.30;99.90;;;;;;5030853;28;20126;-59
2023/01/15 08:31:56;;;;;;;7.40;1.40;;;5.30;99.90;;;;;;5030478;28;20144;-57
2023/01/15 08:34:23;;;;;;;9.35;2.05;;;5.30;99.90;;;;;;5030455;28;20024;-59
2023/01/15 08:36:48;;;;;;;6.22;2.40;;;5.30;99.90;;;;;;5012053;28;20029;-60
2023/01/15 08:39:14;;;;;;;4.70;1.77;;;5.30;99.90;;;;;;5029586;28;20106;-56
2023/01/15 08:41:40;;;;;;;5.05;1.95;;;5.30;99.90;;;;;;5030702;28;20040;-58
2023/01/15 08:44:05;;;;;;;7.60;1.77;;;5.20;99.90;;;;;;5012261;28;20482;-60
2023/01/15 08:46:31;;;;;;;8.20;2.25;;;5.20;99.90;;;;;;5029987;28;20029;-59
2023/01/15 08:48:56;;;;;;;9.43;1.67;;;5.20;99.90;;;;;;5030314;28;20029;-59
2023/01/15 08:51:22;;;;;;;3.53;1.52;;;5.20;99.90;;;;;;5029790;28;20037;-59
2023/01/15 08:53:48;;;;;;;4.15;1.67;;;5.20;99.90;;;;;;5030216;28;20032;-61
2023/01/15 08:56:18;;;;;;;6.55;1.60;;;5.20;99.90;;;;;;5009944;28;20175;-58
2023/01/15 08:58:44;;;;;;;5.18;1.23;;;5.20;99.90;;;;;;5045036;28;20171;-59
2023/01/15 09:01:14;;;;;;;13.95;1.63;;;5.10;99.90;;;;;;5011203;28;20445;-58
2023/01/15 09:03:41;;;;;;;4.28;1.20;;;5.20;99.90;;;;;;5030027;28;20033;-59
2023/01/15 09:06:07;;;;;;;9.00;2.17;;;5.20;99.90;;;;;;5028680;28;20024;-59
2023/01/15 09:08:32;;;;;;;6.35;1.67;;;5.20;99.90;;;;;;5012289;28;20401;-60
2023/01/15 09:10:59;;;;;;;8.90;1.85;;;5.20;99.90;;;;;;5029284;28;20036;-57
2023/01/15 09:13:26;;;;;;;8.40;1.95;;;5.20;99.90;;;;;;5029946;28;20120;-59
2023/01/15 09:15:52;;;;;;;7.63;1.90;;;5.20;99.90;;;;;;5028841;28;20035;-58
2023/01/15 09:18:19;;;;;;;4.80;1.60;;;5.20;99.90;;;;;;5029460;28;20113;-59
2023/01/15 09:20:48;;;;;;;6.78;2.05;;;5.20;99.90;;;;;;5029441;28;20499;-59
2023/01/15 09:23:14;;;;;;;9.52;1.63;;;5.30;99.90;;;;;;5029157;28;20025;-59
2023/01/15 09:25:49;;;;;;;4.00;1.48;;;5.30;99.90;;;;;;5011140;28;20018;-56
2023/01/15 09:28:15;;;;;;;4.32;1.40;;;5.30;99.90;;;;;;5028652;28;20116;-57
2023/01/15 09:30:40;;;;;;;6.25;1.92;;;5.30;99.90;;;;;;5029697;28;20626;-51
2023/01/15 09:33:06;;;;;;;4.97;1.52;;;5.40;99.90;;;;;;5011529;28;20025;-59
2023/01/15 09:35:31;;;;;;;4.60;1.25;;;5.40;99.90;;;;;;5029290;28;20485;-54
2023/01/15 09:37:57;;;;;;;7.95;1.67;;;5.50;99.90;;;;;;5029173;28;20087;-57
2023/01/15 09:40:50;;;;;;;5.97;1.17;;;5.60;99.90;;;;;;5029423;28;20032;-54
2023/01/15 09:43:40;;;;;;;3.40;1.42;;;5.80;99.90;;;;;;5025176;28;20025;-54
2023/01/15 09:46:31;;;;;;;4.38;1.60;;;5.90;99.90;;;;;;5028609;28;20021;-56
2023/01/15 09:49:19;;;;;;;2.83;1.20;;;6.00;99.90;;;;;;5028415;28;20085;-57
2023/01/15 09:54:57;;;;;;;6.40;1.25;;;6.20;99.90;;;;;;5067708;22;20521;-55
2023/01/15 09:57:24;;;;;;;6.15;1.20;;;6.20;99.90;;;;;;5047794;28;20396;-56
2023/01/15 09:59:53;;;;;;;5.28;1.33;;;6.20;99.90;;;;;;5048843;28;20059;-53
2023/01/15 10:02:21;;;;;;;5.32;1.30;;;6.20;99.90;;;;;;5046647;28;20021;-57
2023/01/15 10:04:56;;;;;;;3.85;1.63;;;6.10;99.90;;;;;;5048205;28;20104;-56
2023/01/15 10:07:26;;;;;;;2.80;0.90;;;6.10;99.90;;;;;;5048539;28;20025;-55
2023/01/15 10:10:10;;;;;;;5.22;1.20;;;6.00;99.90;;;;;;5048687;28;20029;-56
2023/01/15 10:12:38;;;;;;;5.28;1.63;;;6.00;99.90;;;;;;5048740;28;20052;-55
2023/01/15 10:15:13;;;;;;;2.90;1.13;;;6.00;99.90;;;;;;5047661;28;20052;-54
2023/01/15 10:17:41;;;;;;;4.35;1.20;;;6.10;99.90;;;;;;5047956;28;20153;-55
2023/01/15 10:20:30;;;;;;;3.88;1.13;;;6.10;99.90;;;;;;5048325;28;20486;-55
2023/01/15 10:23:29;;;;;;;5.38;1.63;;;6.00;99.90;;;;;;5047367;28;20052;-53
2023/01/15 10:26:01;;;;;;;4.72;1.77;;;6.00;99.90;;;;;;5047901;28;20367;-55
2023/01/15 10:28:39;;;;;;;4.68;1.48;;;6.00;99.90;;;;;;5046915;28;20160;-56
2023/01/15 10:31:18;;;;;;;7.85;1.50;;;6.00;99.90;;;;;;5048135;28;20086;-56
2023/01/15 10:34:05;;;;;;;6.10;1.95;;;6.00;99.90;;;;;;5045533;28;20171;-56
2023/01/15 10:36:36;;;;;;;;;;;6.10;99.90;;;;;;5046754;28;20074;-56
2023/01/15 10:39:05;;;;;;;6.70;1.08;;;6.10;99.90;;;;;;5047174;28;20455;-56
2023/01/15 10:42:01;;;;;;;5.93;1.10;;;6.00;99.90;;;;;;5047019;28;20032;-55
2023/01/15 10:44:41;;;;;;;8.00;1.33;;;6.00;99.90;;;;;;5046734;28;20017;-54
2023/01/15 10:47:14;;;;;;;9.82;1.85;;;6.00;99.90;;;;;;5047783;28;20032;-53
2023/01/15 10:49:41;;;;;;;5.22;1.13;;;6.00;99.90;;;;;;5048707;28;20028;-53
2023/01/15 10:52:17;;;;;;;6.32;1.58;;;6.00;99.90;;;;;;5047423;28;20028;-55
2023/01/15 10:54:50;;;;;;;5.07;1.50;;;6.10;99.90;;;;;;5047809;28;20120;-55
2023/01/15 10:57:54;;;;;;;4.63;1.52;;;6.10;99.90;;;;;;5047088;28;20024;-54
2023/01/15 11:00:21;;;;;;;6.68;1.00;;;6.10;99.90;;;;;;5047908;28;20070;-54
2023/01/15 11:02:58;;;;;;;6.82;1.77;;;6.10;99.90;;;;;;5047328;28;20557;-56
2023/01/15 11:05:24;;;;;;;3.65;1.15;;;6.10;99.90;;;;;;5047217;28;20025;-55
2023/01/15 11:07:52;;;;;;;5.18;1.38;;;6.10;99.90;;;;;;5046203;28;20058;-54
2023/01/15 11:10:20;;;;;;;5.32;1.52;;;6.10;99.90;;;;;;5047683;28;20063;-56
2023/01/15 11:22:00;;;;;;;5.68;1.23;;;6.00;99.90;;;;;;5048235;28;20032;-56
2023/01/15 11:24:25;;;;;;;5.10;1.05;;;6.10;99.90;;;;;;5047228;28;20032;-55
2023/01/15 11:26:53;;;;;;;7.00;1.20;;;6.10;99.90;;;;;;5047814;28;20025;-52
2023/01/15 11:29:32;;;;;;;4.78;1.05;;;6.10;99.90;;;;;;5047226;28;20090;-55
2023/01/15 11:31:58;;;;;;;6.47;1.33;;;6.00;99.90;;;;;;5027945;28;20029;-53
2023/01/15 11:34:23;;;;;;;5.15;1.60;;;6.00;99.90;;;;;;5047307;28;20047;-53
2023/01/15 11:37:01;;;;;;;2.92;1.10;;;6.00;99.90;;;;;;5047088;28;20036;-56
2023/01/15 11:39:30;;;;;;;2.72;1.05;;;6.10;99.90;;;;;;5047179;28;20032;-54
2023/01/15 11:53:16;;;;;;;3.05;1.20;;;6.40;99.90;;;;;;5050325;28;20040;-54
2023/01/15 11:55:54;;;;;;;3.77;0.90;;;6.30;99.90;;;;;;5050856;28;20021;-56
2023/01/15 11:58:21;;;;;;;4.38;1.08;;;6.30;99.90;;;;;;5051035;28;20283;-57
2023/01/15 12:00:52;;;;;;;3.50;0.88;;;6.30;99.90;;;;;;5051244;28;20017;-54
2023/01/15 12:03:21;;;;;;;2.60;0.65;;;6.20;99.90;;;;;;5051042;28;20100;-53
2023/01/15 12:06:04;;;;;;;2.50;0.60;;;6.10;99.90;;;;;;5050201;28;20054;-54
2023/01/15 12:08:42;;;;;;;0.52;0.52;;;6.00;99.90;;;;;;5050902;28;20025;-52
2023/01/15 12:11:26;;;;;;;2.33;0.80;;;5.80;99.90;;;;;;5050883;28;20033;-55
2023/01/15 12:13:57;;;;;;;1.25;0.40;;;5.60;99.90;;;;;;5050839;28;20083;-55
2023/01/15 12:16:46;;;;;;;0.77;0.40;;;5.40;99.90;;;;;;5050574;28;20025;-55
2023/01/15 12:19:25;;;;;;;2.03;0.90;;;5.30;99.90;;;;;;5050485;28;20028;-54
2023/01/15 12:22:02;;;;;;;1.83;0.63;;;5.30;99.90;;;;;;5049234;28;20021;-53
2023/01/15 12:24:41;;;;;;;1.65;0.52;;;5.30;99.90;;;;;;5050456;28;20021;-54
2023/01/15 12:27:30;;;;;;;3.25;0.50;;;5.30;99.90;;;;;;5050700;28;20021;-54
2023/01/15 12:30:08;;;;;;;1.55;0.50;;;5.40;99.90;;;;;;5050174;28;20704;-56
2023/01/15 12:32:39;;;;;;;1.42;0.38;;;5.40;99.90;;;;;;5050548;28;20060;-57
2023/01/15 12:35:24;;;;;;;0.98;0.55;;;5.40;99.90;;;;;;5048499;28;20078;-51
2023/01/15 12:37:55;;;;;;;0.87;0.50;;;5.50;99.90;;;;;;5049661;28;20049;-58
2023/01/15 12:40:28;;;;;;;1.38;0.65;;;5.60;99.90;;;;;;5050224;28;20501;-55
2023/01/15 12:45:46;;;;;;;1.27;0.60;;;5.70;99.90;;;;;;5049505;28;20110;-55
2023/01/15 12:48:18;;;;;;;3.08;0.60;;;5.70;99.90;;;;;;5050331;28;20499;-56
2023/01/15 12:50:51;;;;;;;1.55;0.52;;;5.70;99.90;;;;;;5049904;28;20107;-56
2023/01/15 12:53:23;;;;;;;1.15;0.77;;;5.70;99.90;;;;;;5049845;28;20025;-54
2023/01/15 12:56:24;;;;;;;2.17;0.88;;;5.70;99.90;;;;;;5049605;28;20118;-55
2023/01/15 12:58:54;;;;;;;1.38;0.85;;;5.60;99.90;;;;;;5038855;28;20048;-56
2023/01/15 13:01:37;;;;;;;1.40;0.82;;;5.60;99.90;;;;;;5050209;28;20025;-57
2023/01/15 13:04:17;;;;;;;3.50;0.70;;;5.50;99.90;;;;;;5047393;28;20071;-57
2023/01/15 13:07:00;;;;;;;1.35;0.80;;;5.50;99.90;;;;;;5048658;28;20039;-57
2023/01/15 13:09:35;;;;;;;2.08;0.73;;;5.40;99.90;;;;;;5049044;28;20025;-55
2023/01/15 13:12:01;;;;;;;1.38;0.80;;;5.40;99.90;;;;;;5048022;28;20029;-56
2023/01/15 13:14:26;;;;;;;3.55;0.93;;;5.40;99.90;;;;;;5049739;28;20028;-55
2023/01/15 13:16:57;;;;;;;2.15;0.88;;;5.40;99.90;;;;;;5050044;28;20540;-56
2023/01/15 13:19:45;;;;;;;4.88;1.60;;;5.40;99.90;;;;;;5047633;28;20045;-54
2023/01/15 13:22:17;;;;;;;1.05;0.70;;;5.40;99.90;;;;;;5047420;28;20048;-57
2023/01/15 13:25:10;;;;;;;2.15;0.90;;;5.40;99.90;;;;;;5048414;28;20060;-55
2023/01/15 13:28:04;;;;;;;5.30;1.80;;;5.40;99.90;;;;;;5047363;28;20550;-54
2023/01/15 13:30:38;;;;;;;3.55;1.17;;;5.40;99.90;;;;;;5048790;28;20062;-54
2023/01/15 13:33:22;;;;;;;2.85;0.90;;;5.40;99.90;;;;;;5049805;28;20143;-56
2023/01/15 13:35:52;;;;;;;3.88;1.73;;;5.50;99.90;;;;;;5048919;28;20019;-57
2023/01/15 13:38:21;;;;;;;5.10;1.25;;;5.50;99.90;;;;;;5048980;28;20393;-54
2023/01/15 13:40:51;;;;;;;2.53;1.00;;;5.50;99.90;;;;;;5049172;28;20040;-55
2023/01/15 13:43:35;;;;;;;2.55;1.38;;;5.50;99.90;;;;;;5048431;28;20028;-55
2023/01/15 13:46:04;;;;;;;5.78;1.60;;;5.50;99.90;;;;;;5048987;28;20025;-54
2023/01/15 13:48:49;;;;;;;6.35;1.45;;;5.60;99.90;;;;;;5048860;28;20370;-56
2023/01/15 13:51:28;;;;;;;5.90;1.30;;;5.60;99.90;;;;;;5050216;28;20090;-55
2023/01/15 13:53:55;;;;;;;1.90;0.80;;;5.70;99.90;;;;;;5047837;28;20444;-54
2023/01/15 13:56:30;;;;;;;2.78;1.20;;;5.70;99.90;;;;;;5048922;28;20055;-55
2023/01/15 13:59:00;;;;;;;3.22;1.25;;;5.70;99.90;;;;;;5049002;28;20029;-57
2023/01/15 14:01:33;;;;;;;6.68;1.30;;;5.80;99.90;;;;;;5047164;28;20490;-55
2023/01/15 14:04:11;;;;;;;4.57;1.98;;;5.90;99.90;;;;;;5048269;28;20017;-56
2023/01/15 14:06:38;;;;;;;2.80;1.23;;;5.90;99.90;;;;;;5048363;28;20025;-55
2023/01/15 14:09:04;;;;;;;9.25;1.20;;;5.90;99.90;;;;;;5048555;28;20031;-58